Time;durP1;ratioP1;P1;durP2;ratioP2;P2;SDS_P1;SDS_P2;PMS_P1;PMS_P2;Temp;Humidity;BMP_temperature;BMP_pressure;BME280_temperature;BME280_humidity;BME280_pressure;Samples;Min_cycle;Max_cycle;Signal;HPM_P1;HPM_P2
2023/04/13 00:01:00;;;;;;;3.65;1.00;;;4.50;99.90;;;;;;5008283;28;21416;-66
2023/04/13 00:03:29;;;;;;;4.20;1.23;;;4.50;99.90;;;;;;5010455;28;20046;-66
2023/04/13 00:05:55;;;;;;;1.25;0.80;;;4.50;99.90;;;;;;4992145;28;20038;-66
2023/04/13 00:08:21;;;;;;;2.72;1.33;;;4.50;99.90;;;;;;4992837;28;20057;-66
2023/04/13 00:10:49;;;;;;;2.80;0.90;;;4.60;99.90;;;;;;5008145;28;20044;-66
2023/04/13 00:13:17;;;;;;;5.70;1.52;;;4.60;99.90;;;;;;5009917;28;20050;-66
2023/04/13 00:15:43;;;;;;;3.97;1.40;;;4.60;99.90;;;;;;5008420;28;20105;-66
2023/04/13 00:18:09;;;;;;;2.20;1.50;;;4.50;99.90;;;;;;5003678;28;20059;-66
2023/04/13 00:20:35;;;;;;;2.58;1.15;;;4.50;99.90;;;;;;4992211;28;20071;-65
2023/04/13 00:23:01;;;;;;;9.77;1.30;;;4.50;99.90;;;;;;5008559;28;20487;-65
2023/04/13 00:25:28;;;;;;;6.00;1.42;;;4.50;99.90;;;;;;4992313;28;20077;-65
2023/04/13 00:27:54;;;;;;;5.88;1.75;;;4.50;99.90;;;;;;4990589;28;20046;-65
2023/04/13 00:30:20;;;;;;;2.25;1.40;;;4.50;99.90;;;;;;5010007;28;20069;-65
2023/04/13 00:32:47;;;;;;;6.28;1.50;;;4.40;99.90;;;;;;5007819;28;20085;-65
2023/04/13 00:35:18;;;;;;;4.32;1.80;;;4.40;99.90;;;;;;5009453;28;20050;-65
2023/04/13 00:37:47;;;;;;;1.40;0.88;;;4.40;99.90;;;;;;4991181;28;20045;-69
2023/04/13 00:40:15;;;;;;;11.63;1.30;;;4.50;99.90;;;;;;5009062;28;20045;-65
2023/04/13 00:42:49;;;;;;;1.48;1.30;;;4.50;99.90;;;;;;5006094;28;20065;-66
2023/04/13 00:45:16;;;;;;;5.00;1.63;;;4.50;99.90;;;;;;5007809;28;20053;-65
2023/04/13 00:47:47;;;;;;;2.58;1.05;;;4.60;99.90;;;;;;5009857;28;20133;-66
2023/04/13 00:50:16;;;;;;;2.33;1.60;;;4.60;99.90;;;;;;5007907;28;20052;-66
2023/04/13 00:52:42;;;;;;;3.53;1.40;;;4.70;99.90;;;;;;5009828;28;20042;-65
2023/04/13 00:55:08;;;;;;;4.03;1.63;;;4.70;99.90;;;;;;5008008;28;20057;-69
2023/04/13 00:57:34;;;;;;;2.95;1.95;;;4.70;99.90;;;;;;5008188;28;20085;-65
2023/04/13 01:00:11;;;;;;;2.00;1.77;;;4.80;99.90;;;;;;5009289;28;20081;-66
2023/04/13 01:02:40;;;;;;;2.08;1.23;;;4.90;99.90;;;;;;4990376;28;20422;-66
2023/04/13 01:05:07;;;;;;;4.05;1.73;;;5.00;99.90;;;;;;5009083;28;20326;-66
2023/04/13 01:07:57;;;;;;;2.13;1.55;;;5.00;99.90;;;;;;4973904;28;20077;-66
2023/04/13 01:11:02;;;;;;;2.50;0.90;;;5.10;99.90;;;;;;5008172;28;20461;-66
2023/04/13 01:13:33;;;;;;;6.63;1.80;;;5.10;99.90;;;;;;4982128;28;20064;-68
2023/04/13 01:16:26;;;;;;;6.05;2.35;;;5.20;99.90;;;;;;5007103;28;20480;-69
2023/04/13 01:18:53;;;;;;;2.35;1.50;;;5.30;99.90;;;;;;4990857;28;20496;-66
2023/04/13 01:21:24;;;;;;;6.88;2.08;;;5.30;99.90;;;;;;5008563;28;20046;-66
2023/04/13 01:24:05;;;;;;;3.88;1.80;;;5.40;99.90;;;;;;5007519;28;20104;-73
2023/04/13 01:26:44;;;;;;;3.67;1.45;;;5.40;99.90;;;;;;5008912;28;20050;-66
2023/04/13 01:29:10;;;;;;;1.48;1.30;;;5.50;99.90;;;;;;5006518;28;20618;-66
2023/04/13 01:31:37;;;;;;;1.98;1.50;;;5.60;99.90;;;;;;5008912;28;20053;-66
2023/04/13 01:34:03;;;;;;;3.58;1.63;;;5.60;99.90;;;;;;5007823;28;20095;-66
2023/04/13 01:36:32;;;;;;;3.15;1.13;;;5.60;99.90;;;;;;5008210;28;20110;-73
2023/04/13 01:38:58;;;;;;;9.43;1.90;;;5.60;99.90;;;;;;5008524;28;20148;-66
2023/04/13 01:41:24;;;;;;;1.63;1.25;;;5.70;99.90;;;;;;4989718;28;20503;-66
2023/04/13 01:43:50;;;;;;;2.50;1.17;;;5.70;99.90;;;;;;5008606;28;20042;-66
2023/04/13 01:46:19;;;;;;;3.17;1.33;;;5.70;99.90;;;;;;5006811;28;20038;-66
2023/04/13 01:48:50;;;;;;;2.93;1.67;;;5.80;99.90;;;;;;4991251;28;20081;-66
2023/04/13 01:51:23;;;;;;;1.77;1.42;;;5.80;99.90;;;;;;5007482;28;20269;-66
2023/04/13 01:54:00;;;;;;;2.47;1.23;;;5.90;99.90;;;;;;5008065;28;20053;-66
2023/04/13 01:56:28;;;;;;;7.25;1.42;;;5.90;99.90;;;;;;5008821;28;20381;-80
2023/04/13 01:58:59;;;;;;;5.07;1.30;;;5.90;99.90;;;;;;5006951;28;20054;-65
2023/04/13 02:01:25;;;;;;;0.63;0.63;;;5.90;99.90;;;;;;5008641;28;20041;-65
2023/04/13 02:03:52;;;;;;;2.15;1.60;;;6.00;99.90;;;;;;5006764;28;20060;-65
2023/04/13 02:06:18;;;;;;;2.97;1.15;;;6.00;99.90;;;;;;5008089;28;20069;-65
2023/04/13 02:08:44;;;;;;;4.75;1.13;;;6.00;99.90;;;;;;5007795;28;20135;-71
2023/04/13 02:11:11;;;;;;;4.63;1.58;;;5.90;99.90;;;;;;4988995;28;20080;-65
2023/04/13 02:13:37;;;;;;;0.88;0.88;;;5.90;99.90;;;;;;5008167;28;20072;-65
2023/04/13 02:16:05;;;;;;;2.47;1.35;;;5.90;99.90;;;;;;4988339;28;20053;-65
2023/04/13 02:18:32;;;;;;;1.73;1.40;;;5.80;99.90;;;;;;5008633;28;20443;-69
2023/04/13 02:21:08;;;;;;;1.42;1.08;;;5.80;99.90;;;;;;5005949;28;20123;-65
2023/04/13 02:23:40;;;;;;;2.22;1.45;;;5.80;99.90;;;;;;5008376;28;20050;-65
2023/04/13 02:26:15;;;;;;;2.03;0.75;;;5.80;99.90;;;;;;5006822;28;20156;-69
2023/04/13 02:28:41;;;;;;;0.88;0.68;;;5.80;99.90;;;;;;4989743;28;20065;-65
2023/04/13 02:31:06;;;;;;;6.72;1.05;;;5.80;99.90;;;;;;5007921;28;20060;-67
2023/04/13 02:33:34;;;;;;;3.90;1.38;;;5.80;99.90;;;;;;5006418;28;20054;-65
2023/04/13 02:36:02;;;;;;;1.80;1.08;;;5.70;99.90;;;;;;5007561;28;20612;-66
2023/04/13 02:38:29;;;;;;;2.17;0.57;;;5.80;99.90;;;;;;5006948;28;20135;-72
2023/04/13 02:40:59;;;;;;;2.60;1.13;;;5.70;99.90;;;;;;5007943;28;20048;-65
2023/04/13 02:43:28;;;;;;;0.63;0.40;;;5.70;99.90;;;;;;5007557;28;20045;-65
2023/04/13 02:45:54;;;;;;;2.90;1.10;;;5.70;99.90;;;;;;5007242;28;20042;-70
2023/04/13 02:48:20;;;;;;;1.45;0.85;;;5.70;99.90;;;;;;4989763;28;20121;-65
2023/04/13 02:50:46;;;;;;;2.15;0.95;;;5.70;99.90;;;;;;4989102;28;20150;-65
2023/04/13 02:53:13;;;;;;;0.40;0.28;;;5.70;99.90;;;;;;5007350;28;20058;-66
2023/04/13 02:55:39;;;;;;;1.25;1.15;;;5.70;99.90;;;;;;4992734;28;20093;-65
2023/04/13 02:58:05;;;;;;;0.80;0.65;;;5.70;99.90;;;;;;4988057;28;20054;-68
2023/04/13 03:00:34;;;;;;;2.63;1.13;;;5.70;99.90;;;;;;4987365;28;20403;-65
2023/04/13 03:03:02;;;;;;;2.47;0.98;;;5.80;99.90;;;;;;4993518;28;20122;-65
2023/04/13 03:05:30;;;;;;;1.25;0.73;;;5.70;99.90;;;;;;4987612;28;20046;-65
2023/04/13 03:07:56;;;;;;;0.60;0.60;;;5.70;99.90;;;;;;4987036;28;20050;-65
2023/04/13 03:10:22;;;;;;;2.85;1.08;;;5.60;99.90;;;;;;4987663;28;20061;-66
2023/04/13 03:12:49;;;;;;;2.30;1.05;;;5.70;99.90;;;;;;4985987;28;20507;-66
2023/04/13 03:15:17;;;;;;;3.15;1.02;;;5.70;99.90;;;;;;4988184;28;20046;-65
2023/04/13 03:17:43;;;;;;;0.90;0.90;;;5.70;99.90;;;;;;4986827;28;20571;-66
2023/04/13 03:20:14;;;;;;;2.05;0.93;;;5.70;99.90;;;;;;4987355;28;20069;-66
2023/04/13 03:22:39;;;;;;;2.08;1.00;;;5.70;99.90;;;;;;4987940;28;20054;-65
2023/04/13 03:25:07;;;;;;;2.28;1.40;;;5.70;99.90;;;;;;4968910;28;20039;-69
2023/04/13 03:27:33;;;;;;;1.80;0.88;;;5.70;99.90;;;;;;4988231;28;20060;-65
2023/04/13 03:29:59;;;;;;;1.00;0.68;;;5.70;99.90;;;;;;4986418;28;20042;-71
2023/04/13 03:32:26;;;;;;;5.65;1.33;;;5.70;99.90;;;;;;4984217;28;20053;-66
2023/04/13 03:34:52;;;;;;;1.30;1.15;;;5.70;99.90;;;;;;4987372;28;20125;-79
2023/04/13 03:37:17;;;;;;;1.80;1.05;;;5.80;99.90;;;;;;4991272;28;20121;-66
2023/04/13 03:39:43;;;;;;;4.95;1.77;;;5.70;99.90;;;;;;4991053;28;20064;-65
2023/04/13 03:42:09;;;;;;;2.20;1.35;;;5.70;99.90;;;;;;4990312;28;20042;-69
2023/04/13 03:44:34;;;;;;;6.53;1.20;;;5.70;99.90;;;;;;4973532;28;20039;-66
2023/04/13 03:47:00;;;;;;;7.45;1.33;;;5.70;99.90;;;;;;4990017;28;20056;-66
2023/04/13 03:49:29;;;;;;;2.38;1.38;;;5.80;99.90;;;;;;4990988;28;20481;-66
2023/04/13 03:51:55;;;;;;;1.40;1.30;;;5.70;99.90;;;;;;4989631;28;20081;-65
2023/04/13 03:54:21;;;;;;;1.52;1.33;;;5.70;99.90;;;;;;4993471;28;20058;-68
2023/04/13 03:56:47;;;;;;;2.28;1.13;;;5.70;99.90;;;;;;5009707;28;20042;-66
2023/04/13 03:59:13;;;;;;;3.95;1.30;;;5.80;99.90;;;;;;4992404;28;20506;-66
2023/04/13 04:01:39;;;;;;;1.95;1.10;;;5.80;99.90;;;;;;5010606;28;20053;-66
2023/04/13 04:04:04;;;;;;;2.25;1.35;;;5.90;99.90;;;;;;4991906;28;20434;-66
2023/04/13 04:06:30;;;;;;;2.00;1.08;;;5.80;99.90;;;;;;5009735;28;20492;-67
2023/04/13 04:08:56;;;;;;;2.75;1.30;;;5.80;99.90;;;;;;5008569;28;20037;-66
2023/04/13 04:11:21;;;;;;;1.02;0.93;;;5.80;99.90;;;;;;5010101;28;20045;-66
2023/04/13 04:13:47;;;;;;;3.70;1.10;;;5.80;99.90;;;;;;4991511;28;20046;-66
2023/04/13 04:16:13;;;;;;;1.70;1.10;;;5.90;99.90;;;;;;5009068;28;20586;-66
2023/04/13 04:18:39;;;;;;;0.82;0.70;;;5.80;99.90;;;;;;5009654;28;20050;-66
2023/04/13 04:21:05;;;;;;;2.63;1.08;;;5.90;99.90;;;;;;5009039;28;20057;-68
2023/04/13 04:23:33;;;;;;;3.63;1.23;;;5.80;99.90;;;;;;5010413;28;20048;-66
2023/04/13 04:26:01;;;;;;;1.88;0.75;;;5.90;99.90;;;;;;5009025;28;20042;-68
2023/04/13 04:28:29;;;;;;;2.67;0.93;;;5.90;99.90;;;;;;5011398;28;20053;-66
2023/04/13 04:30:55;;;;;;;0.73;0.52;;;5.90;99.90;;;;;;5009624;28;20042;-68
2023/04/13 04:33:21;;;;;;;1.80;0.77;;;5.90;99.90;;;;;;4992150;28;20045;-66
2023/04/13 04:35:51;;;;;;;0.55;0.55;;;5.90;99.90;;;;;;5009269;28;20046;-66
2023/04/13 04:38:23;;;;;;;2.38;0.90;;;5.90;99.90;;;;;;5008816;28;20069;-66
2023/04/13 04:40:49;;;;;;;3.80;0.70;;;6.00;99.90;;;;;;4991981;28;20054;-66
2023/04/13 04:43:16;;;;;;;6.25;0.70;;;5.90;99.90;;;;;;4990474;28;20065;-66
2023/04/13 04:45:42;;;;;;;3.92;0.82;;;6.00;99.90;;;;;;4990903;28;20169;-66
2023/04/13 04:48:14;;;;;;;2.78;0.90;;;6.00;99.90;;;;;;5008301;28;20034;-67
2023/04/13 04:50:43;;;;;;;0.90;0.85;;;6.00;99.90;;;;;;5009399;28;20132;-66
2023/04/13 04:53:10;;;;;;;1.75;0.65;;;6.00;99.90;;;;;;5008827;28;20050;-66
2023/04/13 04:55:37;;;;;;;2.08;0.60;;;6.00;99.90;;;;;;4995571;28;20058;-66
2023/04/13 04:58:03;;;;;;;2.83;0.63;;;6.00;99.90;;;;;;4988503;28;20066;-65
2023/04/13 05:00:29;;;;;;;3.78;0.90;;;6.10;99.90;;;;;;4987917;28;20044;-66
2023/04/13 05:02:56;;;;;;;1.52;0.60;;;6.00;99.90;;;;;;4990208;28;20058;-66
2023/04/13 05:05:23;;;;;;;2.25;0.70;;;6.00;99.90;;;;;;4988332;28;20030;-66
2023/04/13 05:07:49;;;;;;;1.25;0.60;;;6.10;99.90;;;;;;4989812;28;20042;-66
2023/04/13 05:10:15;;;;;;;2.33;0.60;;;6.10;99.90;;;;;;4987470;28;20147;-66
2023/04/13 05:12:41;;;;;;;1.73;0.90;;;6.10;99.90;;;;;;4970829;28;20051;-66
2023/04/13 05:15:07;;;;;;;0.70;0.70;;;6.00;99.90;;;;;;4989139;28;20049;-66
2023/04/13 05:17:35;;;;;;;0.63;0.60;;;6.00;99.90;;;;;;4987935;28;20052;-66
2023/04/13 05:20:05;;;;;;;2.88;0.80;;;6.00;99.90;;;;;;4972110;28;20590;-66
2023/04/13 05:22:31;;;;;;;3.63;0.60;;;6.00;99.90;;;;;;4986957;28;20048;-66
2023/04/13 05:24:57;;;;;;;2.67;0.90;;;6.00;99.90;;;;;;4988240;28;20046;-66
2023/04/13 05:27:23;;;;;;;1.38;0.90;;;6.00;99.90;;;;;;4969904;28;20058;-66
2023/04/13 05:29:49;;;;;;;1.95;0.93;;;6.00;99.90;;;;;;4989389;28;20072;-66
2023/04/13 05:32:15;;;;;;;2.13;0.75;;;6.00;99.90;;;;;;4989370;28;20096;-66
2023/04/13 05:34:40;;;;;;;1.63;0.85;;;6.00;99.90;;;;;;4970309;28;20046;-66
2023/04/13 05:37:07;;;;;;;1.40;0.98;;;6.10;99.90;;;;;;4989563;28;20042;-66
2023/04/13 05:39:33;;;;;;;1.15;0.47;;;6.10;99.90;;;;;;4987312;28;20116;-66
2023/04/13 05:42:00;;;;;;;3.38;1.30;;;6.10;99.90;;;;;;4989159;28;20050;-66
2023/04/13 05:44:25;;;;;;;0.70;0.70;;;6.20;99.90;;;;;;4986191;28;20058;-66
2023/04/13 05:46:52;;;;;;;3.00;1.10;;;6.20;99.90;;;;;;4989219;28;20057;-66
2023/04/13 05:49:17;;;;;;;1.90;1.40;;;6.20;99.90;;;;;;4988021;28;20042;-66
2023/04/13 05:51:43;;;;;;;2.15;1.38;;;6.30;99.90;;;;;;4970843;28;20038;-66
2023/04/13 05:54:10;;;;;;;1.60;1.45;;;6.30;99.90;;;;;;4989696;28;20155;-66
2023/04/13 05:56:35;;;;;;;2.28;1.33;;;6.30;99.90;;;;;;5002621;28;20427;-66
2023/04/13 05:59:03;;;;;;;7.78;2.20;;;6.40;99.90;;;;;;5008840;28;20052;-66
2023/04/13 06:01:30;;;;;;;2.95;1.77;;;6.40;99.90;;;;;;4999191;28;20065;-66
2023/04/13 06:03:56;;;;;;;2.03;1.85;;;6.60;99.90;;;;;;4994866;28;20056;-66
2023/04/13 06:06:22;;;;;;;2.08;1.90;;;6.80;99.90;;;;;;5002680;28;20046;-66
2023/04/13 06:08:51;;;;;;;6.00;2.40;;;6.80;99.90;;;;;;4992780;28;20435;-66
2023/04/13 06:11:19;;;;;;;3.60;1.85;;;6.80;99.90;;;;;;4997714;28;20125;-66
2023/04/13 06:13:45;;;;;;;2.47;1.77;;;6.90;99.90;;;;;;4992168;28;20077;-66
2023/04/13 06:16:11;;;;;;;4.53;1.98;;;7.00;99.90;;;;;;4992722;28;20492;-66
2023/04/13 06:18:36;;;;;;;4.63;1.75;;;7.20;99.90;;;;;;5001954;28;20373;-67
2023/04/13 06:21:02;;;;;;;5.38;2.50;;;7.50;99.90;;;;;;4999122;28;20049;-66
2023/04/13 06:23:28;;;;;;;8.85;2.20;;;7.60;99.90;;;;;;4978839;28;20049;-69
2023/04/13 06:25:55;;;;;;;3.65;1.98;;;7.70;99.90;;;;;;5007799;28;20574;-74
2023/04/13 06:28:27;;;;;;;3.15;1.52;;;7.70;99.90;;;;;;4989580;28;20030;-66
2023/04/13 06:30:53;;;;;;;3.17;1.38;;;7.70;99.90;;;;;;4988717;28;20065;-66
2023/04/13 06:33:19;;;;;;;5.28;1.85;;;7.80;99.90;;;;;;4988933;28;20401;-66
2023/04/13 06:35:45;;;;;;;3.08;1.80;;;7.80;99.90;;;;;;4986767;28;20041;-67
2023/04/13 06:38:11;;;;;;;5.03;1.50;;;7.80;99.90;;;;;;4988855;28;20429;-67
2023/04/13 06:40:37;;;;;;;3.03;1.83;;;8.00;99.90;;;;;;4986308;28;20048;-66
2023/04/13 06:43:03;;;;;;;4.80;1.73;;;8.10;99.90;;;;;;4988691;28;20050;-66
2023/04/13 06:45:30;;;;;;;4.63;1.95;;;8.20;99.90;;;;;;4986747;28;20038;-66
2023/04/13 06:47:59;;;;;;;5.43;1.65;;;8.20;99.90;;;;;;4985142;28;20049;-66
2023/04/13 06:50:25;;;;;;;8.65;1.55;;;8.40;99.90;;;;;;4970044;28;20555;-67
2023/04/13 06:52:51;;;;;;;4.65;1.95;;;8.60;99.90;;;;;;4986595;28;20042;-67
2023/04/13 06:55:17;;;;;;;3.28;1.67;;;8.70;99.90;;;;;;4998308;28;20057;-67
2023/04/13 06:57:43;;;;;;;5.97;1.80;;;8.70;99.90;;;;;;5005300;28;20038;-67
2023/04/13 07:00:13;;;;;;;6.13;2.03;;;8.60;99.90;;;;;;5007405;28;20058;-66
2023/04/13 07:02:43;;;;;;;7.80;1.55;;;8.50;99.90;;;;;;5005241;28;20121;-67
2023/04/13 07:05:10;;;;;;;5.25;2.10;;;8.30;99.90;;;;;;5007542;28;20125;-67
2023/04/13 07:07:36;;;;;;;4.38;1.80;;;8.20;99.90;;;;;;4987543;28;20058;-67
2023/04/13 07:10:02;;;;;;;3.38;1.90;;;8.20;99.90;;;;;;5008991;28;20042;-67
2023/04/13 07:12:27;;;;;;;4.90;1.95;;;8.30;99.90;;;;;;4993937;28;20050;-67
2023/04/13 07:14:53;;;;;;;4.68;1.70;;;8.40;99.90;;;;;;4991202;28;20515;-64
2023/04/13 07:17:20;;;;;;;4.68;1.45;;;8.30;99.90;;;;;;5011391;28;20064;-64
2023/04/13 07:19:46;;;;;;;3.85;1.80;;;8.30;99.90;;;;;;5008334;28;20100;-65
2023/04/13 07:22:13;;;;;;;2.47;1.38;;;8.30;99.90;;;;;;5004026;28;20308;-64
2023/04/13 07:24:39;;;;;;;3.25;1.17;;;8.30;99.90;;;;;;5009677;28;20116;-64
2023/04/13 07:27:05;;;;;;;5.15;1.50;;;8.30;99.90;;;;;;5010418;28;20057;-65
2023/04/13 07:29:31;;;;;;;7.45;2.05;;;8.40;99.90;;;;;;5010873;28;20448;-71
2023/04/13 07:32:01;;;;;;;4.93;1.98;;;8.30;99.90;;;;;;5009173;28;20050;-67
2023/04/13 07:34:28;;;;;;;6.93;1.70;;;8.30;99.90;;;;;;5010919;28;20408;-67
2023/04/13 07:36:54;;;;;;;4.90;2.17;;;8.20;99.90;;;;;;4991430;28;20034;-76
2023/04/13 07:39:20;;;;;;;6.18;2.00;;;8.20;99.90;;;;;;5010739;28;20434;-67
2023/04/13 07:41:46;;;;;;;8.10;1.80;;;8.20;99.90;;;;;;4991243;28;20560;-67
2023/04/13 07:44:16;;;;;;;15.15;2.60;;;8.20;99.90;;;;;;5010747;28;20044;-67
2023/04/13 07:46:42;;;;;;;5.00;2.10;;;8.20;99.90;;;;;;5010435;28;20183;-67
2023/04/13 07:49:08;;;;;;;9.38;2.15;;;8.20;99.90;;;;;;5009567;28;20128;-66
2023/04/13 07:51:34;;;;;;;7.25;3.03;;;8.20;99.90;;;;;;5010217;28;20053;-67
2023/04/13 07:54:01;;;;;;;9.07;2.22;;;8.20;99.90;;;;;;4989535;28;20396;-66
2023/04/13 07:56:27;;;;;;;4.22;2.20;;;8.30;99.90;;;;;;5010054;28;20137;-69
2023/04/13 07:58:53;;;;;;;5.82;2.05;;;8.30;99.90;;;;;;4974862;28;20054;-66
2023/04/13 08:01:20;;;;;;;13.80;2.20;;;8.40;99.90;;;;;;5010187;28;20396;-74
2023/04/13 08:03:46;;;;;;;2.92;1.48;;;8.40;99.90;;;;;;5009608;28;20119;-66
2023/04/13 08:06:12;;;;;;;8.30;2.30;;;8.50;99.90;;;;;;5009847;28;20441;-66
2023/04/13 08:08:37;;;;;;;5.20;2.10;;;8.60;99.90;;;;;;5010693;28;20049;-67
2023/04/13 08:11:03;;;;;;;4.68;2.00;;;8.60;99.90;;;;;;4991025;28;20046;-66
2023/04/13 08:13:30;;;;;;;5.32;1.58;;;8.70;99.90;;;;;;5010192;28;20400;-66
2023/04/13 08:15:56;;;;;;;3.22;1.30;;;8.90;99.90;;;;;;5008451;28;20042;-66
2023/04/13 08:18:22;;;;;;;3.00;1.45;;;9.00;99.90;;;;;;4992984;28;20053;-66
2023/04/13 08:20:49;;;;;;;10.23;1.73;;;9.10;99.90;;;;;;5008391;28;20051;-66
2023/04/13 08:23:15;;;;;;;8.07;1.90;;;9.40;99.90;;;;;;5008624;28;20092;-66
2023/04/13 08:25:41;;;;;;;5.63;1.30;;;9.60;99.90;;;;;;5008499;28;20038;-66
2023/04/13 08:28:07;;;;;;;7.22;1.73;;;9.90;96.90;;;;;;5008138;28;20048;-66
2023/04/13 08:30:33;;;;;;;7.97;1.17;;;10.30;98.00;;;;;;4992149;28;20403;-71
2023/04/13 08:32:59;;;;;;;6.78;1.33;;;10.50;94.90;;;;;;5007739;28;20041;-67
2023/04/13 08:35:25;;;;;;;6.40;1.52;;;10.70;91.40;;;;;;5009517;28;20492;-67
2023/04/13 08:37:52;;;;;;;3.67;1.70;;;10.90;91.90;;;;;;5004016;28;20088;-66
2023/04/13 08:40:18;;;;;;;5.63;1.58;;;10.80;87.50;;;;;;5009377;28;20046;-67
2023/04/13 08:42:46;;;;;;;1.88;0.95;;;10.60;84.50;;;;;;4988385;28;20112;-80
2023/04/13 08:45:12;;;;;;;9.45;1.63;;;10.60;81.30;;;;;;4990337;28;20042;-67
2023/04/13 08:47:39;;;;;;;4.35;1.30;;;10.30;78.60;;;;;;5009281;28;20048;-66
2023/04/13 08:50:06;;;;;;;6.93;1.33;;;9.90;87.60;;;;;;4989454;28;20100;-76
2023/04/13 08:52:34;;;;;;;3.97;1.13;;;9.50;94.90;;;;;;4975654;28;20052;-66
2023/04/13 08:55:02;;;;;;;0.55;0.55;;;9.10;99.90;;;;;;5007077;28;20057;-66
2023/04/13 08:57:31;;;;;;;4.32;0.75;;;8.90;99.90;;;;;;5009774;28;20096;-77
2023/04/13 08:59:58;;;;;;;3.28;0.88;;;8.70;99.90;;;;;;4991512;28;20088;-66
2023/04/13 09:02:35;;;;;;;6.15;1.30;;;8.70;99.90;;;;;;5009347;28;20045;-67
2023/04/13 09:05:12;;;;;;;5.68;1.30;;;8.80;99.90;;;;;;5009547;28;20077;-66
2023/04/13 09:07:38;;;;;;;3.67;0.75;;;8.90;99.90;;;;;;5008147;28;20053;-67
2023/04/13 09:10:05;;;;;;;6.47;1.33;;;9.00;99.90;;;;;;4991236;28;20041;-67
2023/04/13 09:12:31;;;;;;;4.93;1.15;;;9.20;99.90;;;;;;5007374;28;20076;-67
2023/04/13 09:14:57;;;;;;;2.97;1.05;;;9.40;99.90;;;;;;4974997;28;20094;-67
2023/04/13 09:17:27;;;;;;;4.25;1.00;;;9.60;99.90;;;;;;4990753;28;20084;-66
2023/04/13 09:19:56;;;;;;;5.90;0.75;;;9.80;99.90;;;;;;5008494;28;20513;-66
2023/04/13 09:22:22;;;;;;;6.43;1.08;;;9.90;99.90;;;;;;5009412;28;20407;-66
2023/04/13 09:24:48;;;;;;;2.40;0.82;;;10.10;98.60;;;;;;5007110;28;20501;-67
2023/04/13 09:27:22;;;;;;;4.95;0.90;;;10.10;97.60;;;;;;5008910;28;20049;-67
2023/04/13 09:29:55;;;;;;;2.25;0.63;;;10.20;98.50;;;;;;4989617;28;20061;-67
2023/04/13 09:32:27;;;;;;;4.40;1.05;;;10.20;93.30;;;;;;4990566;28;20046;-73
2023/04/13 09:35:04;;;;;;;2.00;0.68;;;10.20;94.80;;;;;;5008756;28;20092;-67
2023/04/13 09:37:34;;;;;;;1.70;0.40;;;10.10;90.70;;;;;;5007353;28;20404;-67
2023/04/13 09:40:17;;;;;;;1.65;0.70;;;10.10;94.20;;;;;;5008313;28;20037;-68
2023/04/13 09:42:57;;;;;;;2.20;0.70;;;10.30;94.00;;;;;;4983361;28;20066;-68
2023/04/13 09:45:23;;;;;;;2.80;0.88;;;10.50;97.10;;;;;;4996314;28;20045;-68
2023/04/13 09:47:51;;;;;;;4.90;0.75;;;10.40;94.40;;;;;;4990870;28;20488;-66
2023/04/13 09:50:21;;;;;;;2.47;1.00;;;10.20;93.80;;;;;;4989403;28;20077;-67
2023/04/13 09:52:58;;;;;;;2.58;0.88;;;10.10;97.60;;;;;;4990468;28;20053;-67
2023/04/13 09:55:26;;;;;;;2.97;0.88;;;10.20;99.00;;;;;;5007032;28;20066;-66
2023/04/13 09:57:51;;;;;;;5.15;0.80;;;10.50;99.90;;;;;;4990874;28;20057;-66
2023/04/13 10:00:20;;;;;;;1.65;0.82;;;10.60;98.50;;;;;;5006693;28;20041;-66
2023/04/13 10:02:51;;;;;;;5.13;1.20;;;10.70;96.90;;;;;;4990218;28;20050;-67
2023/04/13 10:05:18;;;;;;;3.72;0.77;;;10.90;94.90;;;;;;5008015;28;20120;-70
2023/04/13 10:07:45;;;;;;;4.80;0.85;;;11.00;91.10;;;;;;5006939;28;20054;-66
2023/04/13 10:10:11;;;;;;;0.38;0.38;;;11.00;91.90;;;;;;5008317;28;20054;-66
2023/04/13 10:12:46;;;;;;;2.58;0.70;;;10.90;92.30;;;;;;5004833;28;20050;-67
2023/04/13 10:15:30;;;;;;;2.10;0.60;;;10.70;92.00;;;;;;5008330;28;20088;-66
2023/04/13 10:18:02;;;;;;;2.85;0.20;;;10.30;93.30;;;;;;5007580;28;20049;-66
2023/04/13 10:20:29;;;;;;;6.60;0.77;;;9.80;94.40;;;;;;5007671;28;20042;-65
2023/04/13 10:22:55;;;;;;;2.40;0.57;;;9.50;98.60;;;;;;5007707;28;20389;-65
2023/04/13 10:25:21;;;;;;;2.63;0.60;;;9.30;99.90;;;;;;5006546;28;20123;-65
2023/04/13 10:27:58;;;;;;;1.92;0.40;;;9.10;99.90;;;;;;5008312;28;20073;-65
2023/04/13 10:30:24;;;;;;;0.45;0.20;;;8.90;99.90;;;;;;5006505;28;20313;-65
2023/04/13 10:33:04;;;;;;;3.30;0.30;;;8.70;99.90;;;;;;4992349;28;20123;-65
2023/04/13 10:35:32;;;;;;;1.42;0.30;;;8.50;99.90;;;;;;5017154;28;20171;-65
2023/04/13 10:37:58;;;;;;;4.45;0.52;;;8.40;99.90;;;;;;5010034;28;20046;-65
2023/04/13 10:40:24;;;;;;;3.58;0.40;;;8.40;99.90;;;;;;5007806;28;20046;-65
2023/04/13 10:42:50;;;;;;;3.85;0.80;;;8.40;99.90;;;;;;5006696;28;20028;-65
2023/04/13 10:45:25;;;;;;;3.08;0.40;;;8.30;99.90;;;;;;5012967;28;20038;-65
2023/04/13 10:47:52;;;;;;;2.13;0.43;;;8.60;99.90;;;;;;5009808;28;20042;-67
2023/04/13 10:50:22;;;;;;;1.50;0.45;;;8.80;99.90;;;;;;5010337;28;20607;-67
2023/04/13 10:53:05;;;;;;;1.88;0.45;;;9.00;99.90;;;;;;5011609;28;20045;-66
2023/04/13 10:55:33;;;;;;;0.30;0.17;;;9.20;99.90;;;;;;5008050;28;20260;-66
2023/04/13 10:58:01;;;;;;;2.15;0.60;;;9.30;99.90;;;;;;5011963;28;20085;-66
2023/04/13 11:00:29;;;;;;;1.27;0.47;;;9.40;99.90;;;;;;4992231;28;20113;-67
2023/04/13 11:03:01;;;;;;;1.48;0.43;;;9.70;99.90;;;;;;5011946;28;20110;-66
2023/04/13 11:05:28;;;;;;;0.50;0.30;;;9.80;99.90;;;;;;4992692;28;20128;-66
2023/04/13 11:07:54;;;;;;;1.50;0.30;;;9.70;99.90;;;;;;4993446;28;20438;-66
2023/04/13 11:10:27;;;;;;;1.42;0.40;;;9.80;99.90;;;;;;5008053;28;20037;-77
2023/04/13 11:12:54;;;;;;;0.85;0.45;;;9.80;99.30;;;;;;5008787;28;20084;-66
2023/04/13 11:15:21;;;;;;;2.15;0.50;;;9.90;99.90;;;;;;5010854;28;20049;-66
2023/04/13 11:17:58;;;;;;;2.22;0.40;;;10.10;99.20;;;;;;4992071;28;20104;-66
2023/04/13 11:20:35;;;;;;;1.08;0.28;;;10.20;96.90;;;;;;5011100;28;20052;-65
2023/04/13 11:23:03;;;;;;;0.65;0.20;;;10.40;97.50;;;;;;5010913;28;20038;-65
2023/04/13 11:25:29;;;;;;;0.68;0.20;;;10.50;93.70;;;;;;5009793;28;20046;-66
2023/04/13 11:28:00;;;;;;;3.10;0.40;;;10.60;89.20;;;;;;4996755;28;20074;-65
2023/04/13 11:30:27;;;;;;;2.70;0.60;;;10.60;90.30;;;;;;5009136;28;20050;-65
2023/04/13 11:32:53;;;;;;;1.15;0.50;;;10.50;90.70;;;;;;5010879;28;20204;-65
2023/04/13 11:35:22;;;;;;;1.27;0.30;;;10.50;93.40;;;;;;5009659;28;20045;-65
2023/04/13 11:37:51;;;;;;;4.90;1.23;;;10.50;92.80;;;;;;5010829;28;20065;-66
2023/04/13 11:40:21;;;;;;;2.03;0.60;;;10.50;91.60;;;;;;5010115;28;20074;-65
2023/04/13 11:42:55;;;;;;;1.23;0.30;;;10.50;92.40;;;;;;5009737;28;20045;-81
2023/04/13 11:45:24;;;;;;;1.95;0.50;;;10.50;95.60;;;;;;5004095;28;20479;-65
2023/04/13 11:47:50;;;;;;;4.03;0.63;;;10.40;97.90;;;;;;5013595;28;20117;-65
2023/04/13 11:50:17;;;;;;;2.25;1.10;;;10.20;94.10;;;;;;5015346;28;20041;-81
2023/04/13 11:52:45;;;;;;;2.08;0.57;;;10.10;99.90;;;;;;4976866;28;20129;-65
2023/04/13 11:55:12;;;;;;;0.65;0.30;;;10.30;99.90;;;;;;5009434;28;20092;-70
2023/04/13 11:57:40;;;;;;;7.22;0.75;;;10.30;94.30;;;;;;5010101;28;20057;-66
2023/04/13 12:00:16;;;;;;;3.05;0.30;;;10.30;95.60;;;;;;5010006;28;20060;-67
2023/04/13 12:02:43;;;;;;;2.90;0.90;;;10.30;91.80;;;;;;4992582;28;20042;-66
2023/04/13 12:05:29;;;;;;;12.20;1.70;;;10.30;94.90;;;;;;5009037;28;20053;-66
2023/04/13 12:07:57;;;;;;;6.95;1.20;;;10.20;94.30;;;;;;5010765;28;20057;-66
2023/04/13 12:10:31;;;;;;;9.32;1.55;;;10.20;97.10;;;;;;4963905;28;20049;-66
2023/04/13 12:13:05;;;;;;;8.27;1.40;;;10.30;96.30;;;;;;5013155;28;20128;-66
2023/04/13 12:15:33;;;;;;;17.75;2.83;;;10.60;98.00;;;;;;5013075;28;20052;-81
2023/04/13 12:18:00;;;;;;;6.72;1.40;;;10.70;92.70;;;;;;4990440;28;20056;-66
2023/04/13 12:20:37;;;;;;;13.35;2.28;;;10.70;93.90;;;;;;5010048;28;20042;-66
2023/04/13 12:23:15;;;;;;;4.90;0.60;;;10.70;94.00;;;;;;5012598;28;20053;-66
2023/04/13 12:25:40;;;;;;;6.80;1.88;;;10.70;93.40;;;;;;5011548;28;20068;-66
2023/04/13 12:28:06;;;;;;;6.82;1.40;;;10.70;92.70;;;;;;5014881;28;20064;-66
2023/04/13 12:30:32;;;;;;;8.57;1.90;;;10.70;93.20;;;;;;5009844;28;20038;-73
2023/04/13 12:32:58;;;;;;;8.88;1.60;;;11.00;91.80;;;;;;5009841;28;20121;-66
2023/04/13 12:35:24;;;;;;;6.43;1.38;;;11.00;89.60;;;;;;5007674;28;20117;-66
2023/04/13 12:37:51;;;;;;;8.10;1.70;;;11.10;91.60;;;;;;5004925;28;20052;-66
2023/04/13 12:40:18;;;;;;;9.75;2.17;;;11.10;86.10;;;;;;5008053;28;20081;-66
2023/04/13 12:42:47;;;;;;;7.60;1.70;;;11.10;75.30;;;;;;5009738;28;20050;-66
2023/04/13 12:45:15;;;;;;;6.57;1.42;;;11.20;77.60;;;;;;5009590;28;20092;-66
2023/04/13 12:47:41;;;;;;;7.97;1.77;;;11.40;76.90;;;;;;4990281;28;20334;-78
2023/04/13 12:50:10;;;;;;;9.60;1.45;;;11.40;70.90;;;;;;5007854;28;20080;-66
2023/04/13 12:52:37;;;;;;;3.25;0.73;;;11.20;66.40;;;;;;5007620;28;20093;-70
2023/04/13 12:55:04;;;;;;;12.48;1.13;;;11.00;72.00;;;;;;4991073;28;20441;-66
2023/04/13 12:57:30;;;;;;;4.90;0.82;;;10.80;77.50;;;;;;5001811;28;20069;-67
2023/04/13 12:59:56;;;;;;;6.38;1.40;;;10.60;78.30;;;;;;5009389;28;20144;-66